createdAt,value
2017-11-08T00:00:46.658Z,69.70
2017-11-08T00:03:12.899Z,68.60
2017-11-08T00:05:39.129Z,68.50
2017-11-08T00:08:05.343Z,69.00
2017-11-08T00:10:31.745Z,69.40
2017-11-08T00:12:58.016Z,68.90
2017-11-08T00:15:24.296Z,70.20
2017-11-08T00:17:50.560Z,70.00
2017-11-08T00:20:16.786Z,68.80
2017-11-08T00:22:43.031Z,68.90
2017-11-08T00:25:09.305Z,69.00
2017-11-08T00:27:35.539Z,69.40
2017-11-08T00:30:01.801Z,68.70
2017-11-08T00:32:28.097Z,70.10
2017-11-08T00:34:57.821Z,69.60
2017-11-08T00:37:24.035Z,70.30
2017-11-08T00:39:50.273Z,69.90
2017-11-08T00:42:16.710Z,69.90
2017-11-08T00:44:43.332Z,68.80
2017-11-08T00:47:10.297Z,69.20
2017-11-08T00:49:37.237Z,69.80
2017-11-08T00:52:03.450Z,69.80
2017-11-08T00:54:31.561Z,70.50
2017-11-08T00:56:57.785Z,70.20
2017-11-08T00:59:24.009Z,69.80
2017-11-08T01:01:50.232Z,68.70
2017-11-08T01:04:17.300Z,68.40
2017-11-08T01:06:44.264Z,69.90
2017-11-08T01:09:11.213Z,69.60
2017-11-08T01:11:37.534Z,69.60
2017-11-08T01:14:04.650Z,68.60
2017-11-08T01:16:30.883Z,68.90
2017-11-08T01:18:57.090Z,68.80
2017-11-08T01:21:23.445Z,68.80
2017-11-08T01:23:49.721Z,68.60
2017-11-08T01:26:16.042Z,69.00
2017-11-08T01:28:45.379Z,68.60
2017-11-08T01:31:11.645Z,69.30
2017-11-08T01:33:37.861Z,69.60
2017-11-08T01:36:08.157Z,68.80
2017-11-08T01:38:34.469Z,69.00
2017-11-08T01:41:03.712Z,68.50
2017-11-08T01:43:30.681Z,68.70
2017-11-08T01:45:56.912Z,68.70
2017-11-08T01:48:23.237Z,68.30
2017-11-08T01:50:57.961Z,68.30
2017-11-08T01:53:24.184Z,68.50
2017-11-08T01:55:51.618Z,69.00
2017-11-08T01:58:17.858Z,68.80
2017-11-08T02:00:44.082Z,69.00
2017-11-08T02:03:10.371Z,69.00
2017-11-08T02:05:36.604Z,68.90
2017-11-08T02:08:02.823Z,68.80
2017-11-08T02:10:29.107Z,68.80
2017-11-08T02:12:56.092Z,69.10
2017-11-08T02:15:23.060Z,68.90
2017-11-08T02:17:50.873Z,69.20
2017-11-08T02:20:17.112Z,69.10
2017-11-08T02:22:43.356Z,69.30
2017-11-08T02:25:11.571Z,69.10
2017-11-08T02:27:39.960Z,68.70
2017-11-08T02:30:06.201Z,68.70
2017-11-08T02:32:32.449Z,68.30
2017-11-08T02:34:58.773Z,69.20
2017-11-08T02:37:24.973Z,69.40
2017-11-08T02:39:51.198Z,70.00
2017-11-08T02:42:17.441Z,70.30
2017-11-08T02:44:43.710Z,70.80
2017-11-08T02:47:09.936Z,70.10
2017-11-08T02:49:36.182Z,70.20
2017-11-08T02:52:02.417Z,69.70
2017-11-08T02:54:28.714Z,69.80
2017-11-08T02:57:00.945Z,70.50
2017-11-08T02:59:27.225Z,70.50
2017-11-08T03:01:53.618Z,69.70
2017-11-08T03:04:20.565Z,68.30
2017-11-08T03:06:47.540Z,68.70
2017-11-08T03:09:14.501Z,68.60
2017-11-08T03:11:40.769Z,68.50
2017-11-08T03:14:06.994Z,67.90
2017-11-08T03:16:33.945Z,69.00
2017-11-08T03:19:00.165Z,69.00
2017-11-08T03:21:26.528Z,68.70
2017-11-08T03:23:52.792Z,68.70
2017-11-08T03:26:19.017Z,69.20
2017-11-08T03:28:45.280Z,69.60
2017-11-08T03:31:11.524Z,69.10
2017-11-08T03:33:37.809Z,69.00
2017-11-08T03:36:07.232Z,69.10
2017-11-08T03:38:34.193Z,68.80
2017-11-08T03:41:00.433Z,68.70
2017-11-08T03:43:27.415Z,69.30
2017-11-08T03:45:53.637Z,69.30
2017-11-08T03:48:19.871Z,68.70
2017-11-08T03:50:46.115Z,68.80
2017-11-08T03:53:12.345Z,69.10
2017-11-08T03:55:38.934Z,69.40
2017-11-08T03:58:05.374Z,70.60
2017-11-08T04:00:31.618Z,69.70
2017-11-08T04:02:57.828Z,69.30
2017-11-08T04:05:24.039Z,69.60
2017-11-08T04:07:51.010Z,69.40
2017-11-08T04:10:17.220Z,69.30
2017-11-08T04:12:43.473Z,69.50
2017-11-08T04:15:09.736Z,70.40
2017-11-08T04:17:36.087Z,69.10
2017-11-08T04:20:02.334Z,69.00
2017-11-08T04:22:28.617Z,68.60
2017-11-08T04:24:56.097Z,69.20
2017-11-08T04:27:22.321Z,69.70
2017-11-08T04:29:49.372Z,69.40
2017-11-08T04:32:15.697Z,69.80
2017-11-08T04:34:41.970Z,68.80
2017-11-08T04:37:08.210Z,69.20
2017-11-08T04:39:34.441Z,69.20
2017-11-08T04:42:00.641Z,68.80
2017-11-08T04:44:26.854Z,69.50
2017-11-08T04:46:53.086Z,70.00
2017-11-08T04:49:19.305Z,70.50
2017-11-08T04:51:46.277Z,69.70
2017-11-08T04:54:12.525Z,69.70
2017-11-08T04:56:38.765Z,69.30
2017-11-08T04:59:05.010Z,70.00
2017-11-08T05:01:31.404Z,69.50
2017-11-08T05:03:57.649Z,69.40
2017-11-08T05:06:23.935Z,70.30
2017-11-08T05:08:50.160Z,70.80
2017-11-08T05:11:16.410Z,69.60
2017-11-08T05:13:42.655Z,69.80
2017-11-08T05:16:12.210Z,70.20
2017-11-08T05:18:38.449Z,69.60
2017-11-08T05:21:07.610Z,69.50
2017-11-08T05:23:34.577Z,70.30
2017-11-08T05:26:00.834Z,69.60
2017-11-08T05:28:27.058Z,70.20
2017-11-08T05:30:53.275Z,69.60
2017-11-08T05:33:19.525Z,69.50
2017-11-08T05:35:45.762Z,69.50
2017-11-08T05:38:12.347Z,68.80
2017-11-08T05:40:38.585Z,69.40
2017-11-08T05:43:06.135Z,69.50
2017-11-08T05:45:32.363Z,69.20
2017-11-08T05:47:58.607Z,69.40
2017-11-08T05:50:25.567Z,69.70
2017-11-08T05:52:52.559Z,70.60
2017-11-08T05:55:18.781Z,70.60
2017-11-08T05:57:44.996Z,70.70
2017-11-08T06:00:11.242Z,70.10
2017-11-08T06:02:37.515Z,69.90
2017-11-08T06:05:04.516Z,69.90
2017-11-08T06:07:30.813Z,69.80
2017-11-08T06:09:59.594Z,69.50
2017-11-08T06:12:25.840Z,70.60
2017-11-08T06:14:52.092Z,70.10
2017-11-08T06:17:19.048Z,70.20
2017-11-08T06:20:00.045Z,70.10
2017-11-08T06:22:40.355Z,70.10
2017-11-08T06:25:08.132Z,69.80
2017-11-08T06:27:34.373Z,69.70
2017-11-08T06:30:00.586Z,69.20
2017-11-08T06:32:27.569Z,70.00
2017-11-08T06:34:53.835Z,70.00
2017-11-08T06:37:20.118Z,69.60
2017-11-08T06:39:46.352Z,69.60
2017-11-08T06:42:21.602Z,69.50
2017-11-08T06:44:58.241Z,69.60
2017-11-08T06:47:24.551Z,69.50
2017-11-08T06:49:53.933Z,69.40
2017-11-08T06:52:20.898Z,69.50
2017-11-08T06:54:47.148Z,69.50
2017-11-08T06:57:13.389Z,69.00
2017-11-08T06:59:40.368Z,69.20
2017-11-08T07:02:06.587Z,69.10
2017-11-08T07:04:32.838Z,68.80
2017-11-08T07:06:59.973Z,69.20
2017-11-08T07:09:26.216Z,69.20
2017-11-08T07:11:52.445Z,69.60
2017-11-08T07:14:18.680Z,69.70
2017-11-08T07:16:44.917Z,69.60
2017-11-08T07:19:18.362Z,70.60
2017-11-08T07:21:46.516Z,70.00
2017-11-08T07:24:13.501Z,69.70
2017-11-08T07:26:39.775Z,69.60
2017-11-08T07:29:06.029Z,69.70
2017-11-08T07:31:32.236Z,69.50
2017-11-08T07:33:58.469Z,69.80
2017-11-08T07:36:25.520Z,69.30
2017-11-08T07:38:55.502Z,69.40
2017-11-08T07:41:23.661Z,69.30
2017-11-08T07:43:50.816Z,69.40
2017-11-08T07:46:17.110Z,69.30
2017-11-08T07:48:53.061Z,69.30
2017-11-08T07:51:19.474Z,69.70
2017-11-08T07:53:45.721Z,70.10
2017-11-08T07:56:11.957Z,69.90
2017-11-08T07:58:38.927Z,69.70
2017-11-08T08:01:05.153Z,69.60
2017-11-08T08:03:32.126Z,69.70
2017-11-08T08:05:58.359Z,70.20
2017-11-08T08:08:24.564Z,69.70
2017-11-08T08:10:50.805Z,70.10
2017-11-08T08:13:18.041Z,69.50
2017-11-08T08:15:47.552Z,70.10
2017-11-08T08:18:13.925Z,70.10
2017-11-08T08:20:48.652Z,70.40
2017-11-08T08:23:20.322Z,70.80
2017-11-08T08:25:47.288Z,70.20
2017-11-08T08:28:13.497Z,70.20
2017-11-08T08:30:40.532Z,70.50
2017-11-08T08:33:06.768Z,70.50
2017-11-08T08:35:32.982Z,70.60
2017-11-08T08:37:59.520Z,70.40
2017-11-08T08:40:25.857Z,70.40
2017-11-08T08:42:52.106Z,70.10
2017-11-08T08:45:18.421Z,69.80
2017-11-08T08:47:45.418Z,70.00
2017-11-08T08:50:11.700Z,70.00
2017-11-08T08:52:38.737Z,69.60
2017-11-08T08:55:04.969Z,69.60
2017-11-08T08:57:31.201Z,69.00
2017-11-08T08:59:57.502Z,69.30
2017-11-08T09:02:23.762Z,69.40
2017-11-08T09:04:50.042Z,69.50
2017-11-08T09:07:17.046Z,69.50
2017-11-08T09:09:43.265Z,69.50
2017-11-08T09:12:09.482Z,69.90
2017-11-08T09:14:36.478Z,69.60
2017-11-08T09:17:02.745Z,69.50
2017-11-08T09:19:31.857Z,70.10
2017-11-08T09:21:58.113Z,70.10
2017-11-08T09:24:24.395Z,70.00
2017-11-08T09:26:50.717Z,70.00
2017-11-08T09:29:17.741Z,69.50
2017-11-08T09:31:43.972Z,69.40
2017-11-08T09:34:10.224Z,69.80
2017-11-08T09:36:36.540Z,69.60
2017-11-08T09:39:03.518Z,70.30
2017-11-08T09:41:30.940Z,70.30
2017-11-08T09:43:57.211Z,70.50
2017-11-08T09:46:24.377Z,70.70
2017-11-08T09:48:50.612Z,70.70
2017-11-08T09:51:16.917Z,70.60
2017-11-08T09:53:43.155Z,70.70
2017-11-08T09:56:10.945Z,70.50
2017-11-08T09:58:37.180Z,71.70
2017-11-08T10:01:10.516Z,71.00
2017-11-08T10:03:36.769Z,71.00
2017-11-08T10:06:02.997Z,71.30
2017-11-08T10:08:33.001Z,71.30
2017-11-08T10:11:03.310Z,71.30
2017-11-08T10:13:29.536Z,71.50
2017-11-08T10:15:55.788Z,71.30
2017-11-08T10:18:22.795Z,71.50
2017-11-08T10:20:51.376Z,71.50
2017-11-08T10:23:19.404Z,71.20
2017-11-08T10:25:45.787Z,71.30
2017-11-08T10:28:12.031Z,71.10
2017-11-08T10:30:38.254Z,71.50
2017-11-08T10:33:04.469Z,71.00
2017-11-08T10:35:30.703Z,70.40
2017-11-08T10:38:01.129Z,70.80
2017-11-08T10:40:27.474Z,70.50
2017-11-08T10:42:53.706Z,70.70
2017-11-08T10:45:20.692Z,70.20
2017-11-08T10:47:47.667Z,70.60
2017-11-08T10:50:14.763Z,70.60
2017-11-08T10:52:41.002Z,70.30
2017-11-08T10:55:15.504Z,70.40
2017-11-08T10:57:41.773Z,70.70
2017-11-08T11:00:08.012Z,70.30
2017-11-08T11:02:34.270Z,70.40
2017-11-08T11:05:00.646Z,70.50
2017-11-08T11:07:27.035Z,69.60
2017-11-08T11:09:57.062Z,69.70
2017-11-08T11:12:24.287Z,70.00
2017-11-08T11:14:50.645Z,70.00
2017-11-08T11:17:17.009Z,70.40
2017-11-08T11:19:47.305Z,70.50
2017-11-08T11:22:15.262Z,70.80
2017-11-08T11:24:44.981Z,70.80
2017-11-08T11:27:14.677Z,70.60
2017-11-08T11:29:41.027Z,70.10
2017-11-08T11:32:10.335Z,70.30
2017-11-08T11:34:36.698Z,70.40
2017-11-08T11:37:03.034Z,70.00
2017-11-08T11:39:29.397Z,70.50
2017-11-08T11:41:59.264Z,70.70
2017-11-08T11:44:25.636Z,70.40
2017-11-08T11:46:51.999Z,70.20
2017-11-08T11:49:18.375Z,70.40
2017-11-08T11:51:44.750Z,69.90
2017-11-08T11:54:11.095Z,69.90
2017-11-08T11:56:38.199Z,69.40
2017-11-08T11:59:08.235Z,69.60
2017-11-08T12:01:34.581Z,69.50
2017-11-08T12:04:00.926Z,69.50
2017-11-08T12:06:27.274Z,69.20
2017-11-08T12:08:53.657Z,69.50
2017-11-08T12:11:20.020Z,69.20
2017-11-08T12:14:01.347Z,69.80
2017-11-08T12:16:27.491Z,69.20
2017-11-08T12:18:53.639Z,69.20
2017-11-08T12:21:19.775Z,69.60
2017-11-08T12:23:45.936Z,69.30
2017-11-08T12:26:12.811Z,69.60
2017-11-08T12:28:43.775Z,69.60
2017-11-08T12:31:09.944Z,69.50
2017-11-08T12:33:36.831Z,69.30
2017-11-08T12:36:02.973Z,69.80
2017-11-08T12:38:30.001Z,69.10
2017-11-08T12:40:56.157Z,69.20
2017-11-08T12:43:22.353Z,68.70
2017-11-08T12:45:50.964Z,68.50
2017-11-08T12:48:17.120Z,68.60
2017-11-08T12:50:43.273Z,68.50
2017-11-08T12:53:09.617Z,69.20
2017-11-08T12:55:35.805Z,69.00
2017-11-08T12:58:05.043Z,69.10
2017-11-08T13:00:31.492Z,69.30
2017-11-08T13:03:00.738Z,68.40
2017-11-08T13:05:27.113Z,68.30
2017-11-08T13:07:56.046Z,68.30
2017-11-08T13:10:25.466Z,68.10
2017-11-08T13:12:51.606Z,68.40
2017-11-08T13:17:49.741Z,68.50
2017-11-08T13:20:15.869Z,68.30
2017-11-08T13:22:42.027Z,68.30
2017-11-08T13:25:08.180Z,68.50
2017-11-08T13:27:34.374Z,68.40
2017-11-08T13:30:00.655Z,68.20
2017-11-08T13:32:27.998Z,68.10
2017-11-08T13:34:56.886Z,68.30
2017-11-08T13:37:23.235Z,68.30
2017-11-08T13:39:49.620Z,68.20
2017-11-08T13:42:18.970Z,67.40
2017-11-08T13:44:45.314Z,67.40
2017-11-08T13:47:12.465Z,67.80
2017-11-08T13:49:38.875Z,67.80
2017-11-08T13:52:09.931Z,67.40
2017-11-08T13:54:36.270Z,68.10
2017-11-08T13:57:02.655Z,68.60
2017-11-08T13:59:29.088Z,67.90
2017-11-08T14:01:55.485Z,67.90
2017-11-08T14:04:21.858Z,67.70
2017-11-08T14:06:48.227Z,67.80
2017-11-08T14:09:19.314Z,67.90
2017-11-08T14:11:45.666Z,68.00
2017-11-08T14:14:12.809Z,68.10
2017-11-08T14:16:39.174Z,68.10
2017-11-08T14:19:05.737Z,68.10
2017-11-08T14:21:32.104Z,67.20
2017-11-08T14:24:03.518Z,68.20
2017-11-08T14:26:29.970Z,68.30
2017-11-08T14:28:56.341Z,67.90
2017-11-08T14:31:22.702Z,68.20
2017-11-08T14:33:49.859Z,68.20
2017-11-08T14:36:16.255Z,68.20
2017-11-08T14:38:42.598Z,68.10
2017-11-08T14:41:08.954Z,68.40
2017-11-08T14:43:38.837Z,68.10
2017-11-08T14:46:04.989Z,68.40
2017-11-08T14:48:31.339Z,68.40
2017-11-08T14:50:57.700Z,68.40
2017-11-08T14:53:24.033Z,68.40
2017-11-08T14:55:50.404Z,68.20
2017-11-08T14:58:17.281Z,68.10
2017-11-08T15:00:46.858Z,68.00
2017-11-08T15:03:13.202Z,68.10
2017-11-08T15:05:40.260Z,67.50
2017-11-08T15:08:07.368Z,67.70
2017-11-08T15:10:35.513Z,67.70
2017-11-08T15:13:02.484Z,67.70
2017-11-08T15:15:30.669Z,68.10
2017-11-08T15:17:57.682Z,68.10
2017-11-08T15:20:24.037Z,68.20
2017-11-08T15:22:51.720Z,68.60
2017-11-08T15:25:18.049Z,68.60
2017-11-08T15:27:44.420Z,68.20
2017-11-08T15:30:20.461Z,68.20
2017-11-08T15:32:47.570Z,68.00
2017-11-08T15:35:14.184Z,68.00
2017-11-08T15:37:41.279Z,68.20
2017-11-08T15:40:08.416Z,67.90
2017-11-08T15:42:34.845Z,67.90
2017-11-08T15:45:05.985Z,68.20
2017-11-08T15:47:33.829Z,67.90
2017-11-08T15:50:00.187Z,67.90
2017-11-08T15:52:26.566Z,68.10
2017-11-08T15:54:52.962Z,67.80
2017-11-08T15:57:20.082Z,68.10
2017-11-08T15:59:46.429Z,68.00
2017-11-08T16:02:17.766Z,68.20
2017-11-08T16:04:44.113Z,68.00
2017-11-08T16:07:11.218Z,67.70
2017-11-08T16:09:37.580Z,67.60
2017-11-08T16:12:03.980Z,67.90
2017-11-08T16:14:31.100Z,68.40
2017-11-08T16:17:00.347Z,68.30
2017-11-08T16:19:28.099Z,68.30
2017-11-08T16:21:54.441Z,68.50
2017-11-08T16:24:21.522Z,68.20
2017-11-08T16:26:48.608Z,68.10
2017-11-08T16:29:15.926Z,68.00
2017-11-08T16:31:42.280Z,68.30
2017-11-08T16:34:08.633Z,68.30
2017-11-08T16:36:38.689Z,68.20
2017-11-08T16:39:05.041Z,68.30
2017-11-08T16:41:32.157Z,68.30
2017-11-08T16:43:58.531Z,68.30
2017-11-08T16:46:24.977Z,68.30
2017-11-08T16:48:51.408Z,69.30
2017-11-08T16:51:17.859Z,68.50
2017-11-08T16:53:44.390Z,68.60
2017-11-08T16:56:10.736Z,68.60
2017-11-08T16:58:41.243Z,68.30
2017-11-08T17:01:07.615Z,68.30
2017-11-08T17:03:34.005Z,68.30
2017-11-08T17:06:00.462Z,68.40
2017-11-08T17:08:26.877Z,68.20
2017-11-08T17:10:53.262Z,68.00
2017-11-08T17:13:23.764Z,68.10
2017-11-08T17:15:50.216Z,68.10
2017-11-08T17:18:16.560Z,68.50
2017-11-08T17:20:42.894Z,68.50
2017-11-08T17:23:09.251Z,68.40
2017-11-08T17:25:35.585Z,68.50
2017-11-08T17:30:33.152Z,68.20
2017-11-08T17:32:59.520Z,68.30
2017-11-08T17:35:25.864Z,68.40
2017-11-08T17:37:52.200Z,68.40
2017-11-08T17:40:19.276Z,68.00
2017-11-08T17:42:45.651Z,68.00
2017-11-08T17:45:15.549Z,68.30
2017-11-08T17:47:41.696Z,68.10
2017-11-08T17:50:07.885Z,68.50
2017-11-08T17:52:34.946Z,68.40
2017-11-08T17:55:02.018Z,68.40
2017-11-08T17:57:28.141Z,68.60
2017-11-08T17:59:58.573Z,68.60
2017-11-08T18:02:25.662Z,68.60
2017-11-08T18:04:51.993Z,68.60
2017-11-08T18:07:18.324Z,68.60
2017-11-08T18:09:45.242Z,68.30
2017-11-08T18:12:11.384Z,68.30
2017-11-08T18:17:09.934Z,68.30
2017-11-08T18:19:36.140Z,68.30
2017-11-08T18:22:02.296Z,68.40
2017-11-08T18:24:28.434Z,68.10
2017-11-08T18:26:54.613Z,67.90
2017-11-08T18:29:20.776Z,67.70
2017-11-08T18:31:53.382Z,68.10
2017-11-08T18:34:23.135Z,67.90
2017-11-08T18:36:49.324Z,67.90
2017-11-08T18:39:15.475Z,68.10
2017-11-08T18:41:41.592Z,68.10
2017-11-08T18:44:07.725Z,68.00
2017-11-08T18:46:33.846Z,68.10
2017-11-08T18:48:59.961Z,67.60
2017-11-08T18:51:28.780Z,67.10
2017-11-08T18:53:55.242Z,67.50
2017-11-08T18:56:21.585Z,67.80
2017-11-08T18:58:47.942Z,67.70
2017-11-08T19:01:14.267Z,67.70
2017-11-08T19:03:40.601Z,67.30
2017-11-08T19:06:07.721Z,67.50
2017-11-08T19:08:37.473Z,67.50
2017-11-08T19:11:03.865Z,67.80
2017-11-08T19:13:30.984Z,67.80
2017-11-08T19:15:57.334Z,67.70
2017-11-08T19:18:24.483Z,67.90
2017-11-08T19:20:51.368Z,68.20
2017-11-08T19:23:22.288Z,68.20
2017-11-08T19:25:48.463Z,68.20
2017-11-08T19:28:14.640Z,67.90
2017-11-08T19:30:41.512Z,67.90
2017-11-08T19:33:08.418Z,68.00
2017-11-08T19:35:34.571Z,68.00
2017-11-08T19:38:00.823Z,68.20
2017-11-08T19:40:33.512Z,67.60
2017-11-08T19:42:59.684Z,67.80
2017-11-08T19:45:25.850Z,67.90
2017-11-08T19:47:52.002Z,67.90
2017-11-08T19:50:18.129Z,67.90
2017-11-08T19:52:44.989Z,68.50
2017-11-08T19:55:11.149Z,68.50
2017-11-08T19:57:37.306Z,68.60
2017-11-08T20:00:06.915Z,68.20
2017-11-08T20:02:33.039Z,68.30
2017-11-08T20:04:59.250Z,68.10
2017-11-08T20:07:25.370Z,68.00
2017-11-08T20:09:51.523Z,67.90
2017-11-08T20:12:18.389Z,68.20
2017-11-08T20:14:45.266Z,68.40
2017-11-08T20:17:15.376Z,68.30
2017-11-08T20:19:42.509Z,68.50
2017-11-08T20:22:09.601Z,68.40
2017-11-08T20:24:35.768Z,68.40
2017-11-08T20:27:01.899Z,68.30
2017-11-08T20:29:28.777Z,68.00
2017-11-08T20:31:54.919Z,68.10
2017-11-08T20:34:27.421Z,68.40
2017-11-08T20:36:53.565Z,68.10
2017-11-08T20:39:19.689Z,68.60
2017-11-08T20:41:45.821Z,68.80
2017-11-08T20:44:12.700Z,68.20
2017-11-08T20:46:39.614Z,68.60
2017-11-08T20:49:09.991Z,68.20
2017-11-08T20:51:36.131Z,68.30
2017-11-08T20:54:02.490Z,67.90
2017-11-08T20:56:28.675Z,68.20
2017-11-08T20:58:55.615Z,68.60
2017-11-08T21:01:21.865Z,68.60
2017-11-08T21:03:48.018Z,68.50
2017-11-08T21:06:14.210Z,67.70
2017-11-08T21:08:40.965Z,68.10
2017-11-08T21:11:07.335Z,68.40
2017-11-08T21:13:35.519Z,69.00
2017-11-08T21:16:01.882Z,68.20
2017-11-08T21:18:29.712Z,68.70
2017-11-08T21:20:56.073Z,68.70
2017-11-08T21:23:24.314Z,68.30
2017-11-08T21:25:50.667Z,68.60
2017-11-08T21:28:17.953Z,68.30
2017-11-08T21:30:44.508Z,67.90
2017-11-08T21:33:11.061Z,68.20
2017-11-08T21:35:38.330Z,68.80
2017-11-08T21:38:05.430Z,68.30
2017-11-08T21:40:31.871Z,68.30
2017-11-08T21:42:58.429Z,68.40
2017-11-08T21:45:25.102Z,68.30
2017-11-08T21:47:51.448Z,68.00
2017-11-08T21:50:17.965Z,68.30
2017-11-08T21:52:44.369Z,68.50
2017-11-08T21:55:10.751Z,68.20
2017-11-08T21:57:37.138Z,68.10
2017-11-08T22:00:03.573Z,68.40
2017-11-08T22:02:30.056Z,68.40
2017-11-08T22:04:56.633Z,68.20
2017-11-08T22:07:22.976Z,69.00
2017-11-08T22:09:49.364Z,69.30
2017-11-08T22:12:15.710Z,69.10
2017-11-08T22:14:42.134Z,68.70
2017-11-08T22:17:09.254Z,69.30
2017-11-08T22:19:35.589Z,68.70
2017-11-08T22:22:01.996Z,68.80
2017-11-08T22:24:29.158Z,68.90
2017-11-08T22:26:56.323Z,68.40
2017-11-08T22:29:23.458Z,68.50
2017-11-08T22:31:49.969Z,68.50
2017-11-08T22:34:16.342Z,68.70
2017-11-08T22:36:42.778Z,68.60
2017-11-08T22:39:09.329Z,68.20
2017-11-08T22:41:35.758Z,68.50
2017-11-08T22:44:02.874Z,69.10
2017-11-08T22:46:29.377Z,68.90
2017-11-08T22:48:59.006Z,69.10
2017-11-08T22:51:25.646Z,69.10
2017-11-08T22:53:52.886Z,69.60
2017-11-08T22:56:19.986Z,69.10
2017-11-08T22:58:47.406Z,68.90
2017-11-08T23:01:14.543Z,69.30
2017-11-08T23:03:40.897Z,69.30
2017-11-08T23:06:07.359Z,69.30
2017-11-08T23:08:34.494Z,68.90
2017-11-08T23:11:00.860Z,69.30
2017-11-08T23:13:27.132Z,69.40
2017-11-08T23:15:53.596Z,69.30
2017-11-08T23:18:23.457Z,69.40
2017-11-08T23:20:54.328Z,69.70
2017-11-08T23:23:20.702Z,69.60
2017-11-08T23:25:47.970Z,69.40
2017-11-08T23:28:14.353Z,69.40
2017-11-08T23:30:40.920Z,68.80
2017-11-08T23:33:07.269Z,69.60
2017-11-08T23:35:34.437Z,68.50
2017-11-08T23:38:00.819Z,68.40
2017-11-08T23:40:27.222Z,68.40
2017-11-08T23:42:53.678Z,68.80
2017-11-08T23:45:20.045Z,68.70
2017-11-08T23:47:46.381Z,69.00
2017-11-08T23:50:14.356Z,69.10
2017-11-08T23:52:40.694Z,68.80
2017-11-08T23:55:07.038Z,69.20
2017-11-08T23:57:33.423Z,69.10
